createdAt,value
2018-08-20T00:02:38.025Z,8.20
2018-08-20T00:05:43.180Z,7.33
2018-08-20T00:08:46.397Z,7.33
2018-08-20T00:11:49.763Z,8.13
2018-08-20T00:14:53.358Z,7.10
2018-08-20T00:17:56.416Z,7.10
2018-08-20T00:20:59.529Z,8.07
2018-08-20T00:24:02.600Z,7.70
2018-08-20T00:27:05.665Z,7.57
2018-08-20T00:30:14.573Z,7.47
2018-08-20T00:33:17.625Z,6.93
2018-08-20T00:36:20.709Z,8.23
2018-08-20T00:39:23.791Z,7.10
2018-08-20T00:42:26.858Z,7.60
2018-08-20T00:45:29.945Z,7.70
2018-08-20T00:48:32.994Z,7.33
2018-08-20T00:51:36.053Z,8.10
2018-08-20T00:54:39.145Z,7.03
2018-08-20T00:57:42.210Z,8.40
2018-08-20T01:00:45.261Z,7.70
2018-08-20T01:03:48.334Z,8.23
2018-08-20T01:06:51.389Z,7.83
2018-08-20T01:09:54.942Z,7.77
2018-08-20T01:12:58.019Z,8.03
2018-08-20T01:16:01.094Z,8.53
2018-08-20T01:19:04.155Z,7.70
2018-08-20T01:22:07.289Z,8.13
2018-08-20T01:25:10.360Z,7.90
2018-08-20T01:28:13.409Z,8.27
2018-08-20T01:31:16.486Z,8.00
2018-08-20T01:34:19.553Z,8.17
2018-08-20T01:37:22.637Z,8.13
2018-08-20T01:40:25.865Z,8.27
2018-08-20T01:43:28.939Z,7.90
2018-08-20T01:46:32.021Z,8.53
2018-08-20T01:49:35.073Z,7.93
2018-08-20T01:52:38.137Z,8.27
2018-08-20T01:55:41.221Z,7.90
2018-08-20T01:58:44.289Z,8.20
2018-08-20T02:01:47.385Z,8.53
2018-08-20T02:04:50.458Z,7.77
2018-08-20T02:07:53.524Z,7.93
2018-08-20T02:10:56.598Z,8.43
2018-08-20T02:13:59.681Z,9.03
2018-08-20T02:17:02.756Z,8.30
2018-08-20T02:20:06.014Z,8.23
2018-08-20T02:23:09.077Z,8.90
2018-08-20T02:26:12.145Z,8.87
2018-08-20T02:29:15.253Z,8.23
2018-08-20T02:32:18.325Z,9.20
2018-08-20T02:35:21.397Z,8.80
2018-08-20T02:38:24.489Z,9.03
2018-08-20T02:41:27.626Z,10.07
2018-08-20T02:44:30.694Z,9.57
2018-08-20T02:47:33.848Z,10.17
2018-08-20T02:50:37.258Z,10.20
2018-08-20T02:53:40.574Z,10.20
2018-08-20T02:56:43.994Z,10.93
2018-08-20T02:59:47.238Z,11.07
2018-08-20T03:02:51.331Z,10.93
2018-08-20T03:05:54.564Z,11.27
2018-08-20T03:08:57.797Z,12.47
2018-08-20T03:12:01.108Z,12.70
2018-08-20T03:15:05.201Z,11.50
2018-08-20T03:18:08.590Z,9.97
2018-08-20T03:21:12.097Z,11.63
2018-08-20T03:24:15.525Z,10.77
2018-08-20T03:27:18.856Z,12.97
2018-08-20T03:30:22.190Z,13.90
2018-08-20T03:33:25.522Z,11.57
2018-08-20T03:36:28.778Z,10.67
2018-08-20T03:39:32.177Z,11.53
2018-08-20T03:42:35.494Z,11.47
2018-08-20T03:45:38.770Z,11.70
2018-08-20T03:48:42.037Z,12.70
2018-08-20T03:51:45.425Z,11.53
2018-08-20T03:54:48.734Z,10.87
2018-08-20T03:57:52.170Z,11.07
2018-08-20T04:00:55.617Z,12.30
2018-08-20T04:03:58.914Z,12.23
2018-08-20T04:07:04.324Z,11.40
2018-08-20T04:10:07.564Z,11.93
2018-08-20T04:13:10.821Z,11.37
2018-08-20T04:16:14.186Z,11.47
2018-08-20T04:19:17.526Z,12.43
2018-08-20T04:22:20.859Z,11.20
2018-08-20T04:25:24.114Z,11.77
2018-08-20T04:28:27.490Z,11.67
2018-08-20T04:31:31.006Z,10.53
2018-08-20T04:34:34.311Z,11.10
2018-08-20T04:37:37.629Z,11.87
2018-08-20T04:40:40.834Z,11.40
2018-08-20T04:43:44.102Z,11.83
2018-08-20T04:46:47.313Z,11.73
2018-08-20T04:49:50.843Z,13.30
2018-08-20T04:52:54.149Z,12.53
2018-08-20T04:55:57.440Z,13.27
2018-08-20T04:59:00.747Z,12.83
2018-08-20T05:02:04.001Z,12.47
2018-08-20T05:05:07.545Z,12.13
2018-08-20T05:08:10.846Z,11.53
2018-08-20T05:11:14.375Z,11.63
2018-08-20T05:14:17.698Z,11.47
2018-08-20T05:17:20.903Z,11.30
2018-08-20T05:20:24.242Z,12.20
2018-08-20T05:23:27.478Z,11.53
2018-08-20T05:26:30.836Z,11.80
2018-08-20T05:29:33.907Z,11.57
2018-08-20T05:32:37.103Z,11.20
2018-08-20T05:35:40.173Z,11.77
2018-08-20T05:38:43.276Z,11.73
2018-08-20T05:41:46.367Z,11.17
2018-08-20T05:44:49.471Z,12.27
2018-08-20T05:47:52.529Z,11.97
2018-08-20T05:50:55.628Z,11.80
2018-08-20T05:53:58.697Z,12.00
2018-08-20T05:57:01.776Z,12.37
2018-08-20T06:00:09.082Z,11.20
2018-08-20T06:03:12.160Z,11.90
2018-08-20T06:06:15.277Z,12.40
2018-08-20T06:09:18.373Z,12.33
2018-08-20T06:12:21.445Z,12.13
2018-08-20T06:15:24.628Z,13.87
2018-08-20T06:18:27.632Z,12.30
2018-08-20T06:21:31.189Z,11.77
2018-08-20T06:24:34.278Z,12.90
2018-08-20T06:27:37.388Z,12.67
2018-08-20T06:30:40.453Z,12.57
2018-08-20T06:33:43.557Z,12.37
2018-08-20T06:36:46.657Z,15.13
2018-08-20T06:39:49.750Z,14.23
2018-08-20T06:42:52.801Z,13.37
2018-08-20T06:45:55.905Z,12.50
2018-08-20T06:48:58.992Z,19.50
2018-08-20T06:52:02.065Z,12.20
2018-08-20T06:55:05.141Z,13.33
2018-08-20T06:58:08.256Z,11.00
2018-08-20T07:01:11.350Z,12.87
2018-08-20T07:04:14.485Z,12.33
2018-08-20T07:07:17.566Z,12.43
2018-08-20T07:10:20.633Z,11.53
2018-08-20T07:13:28.524Z,16.63
2018-08-20T07:16:31.589Z,10.17
2018-08-20T07:19:34.681Z,9.37
2018-08-20T07:22:37.781Z,8.07
2018-08-20T07:25:40.862Z,6.90
2018-08-20T07:28:43.921Z,7.80
2018-08-20T07:31:46.982Z,6.47
2018-08-20T07:34:50.037Z,5.87
2018-08-20T07:37:53.118Z,6.70
2018-08-20T07:40:56.202Z,7.87
2018-08-20T07:43:59.273Z,5.80
2018-08-20T07:47:02.365Z,6.43
2018-08-20T07:50:05.519Z,6.77
2018-08-20T07:53:08.622Z,6.40
2018-08-20T07:56:11.745Z,9.13
2018-08-20T07:59:15.437Z,6.83
2018-08-20T08:02:18.502Z,7.43
2018-08-20T08:05:21.569Z,7.30
2018-08-20T08:08:24.654Z,7.47
2018-08-20T08:11:28.006Z,8.10
2018-08-20T08:14:37.065Z,8.40
2018-08-20T08:17:40.958Z,7.53
2018-08-20T08:20:44.184Z,7.37
2018-08-20T08:23:47.848Z,7.77
2018-08-20T08:26:51.158Z,8.20
2018-08-20T08:29:54.454Z,7.53
2018-08-20T08:32:57.681Z,7.20
2018-08-20T08:36:02.063Z,7.47
2018-08-20T08:39:08.478Z,7.43
2018-08-20T08:42:11.934Z,7.53
2018-08-20T08:45:17.442Z,7.90
2018-08-20T08:48:20.672Z,7.27
2018-08-20T08:51:24.054Z,8.07
2018-08-20T08:54:27.425Z,7.37
2018-08-20T08:57:30.726Z,7.73
2018-08-20T09:00:34.043Z,7.37
2018-08-20T09:03:37.186Z,7.57
2018-08-20T09:06:40.467Z,7.90
2018-08-20T09:09:43.766Z,7.53
2018-08-20T09:12:46.986Z,6.67
2018-08-20T09:15:50.507Z,6.67
2018-08-20T09:19:05.923Z,6.83
2018-08-20T09:22:09.222Z,6.10
2018-08-20T09:25:13.447Z,6.47
2018-08-20T09:28:16.740Z,5.60
2018-08-20T09:31:19.965Z,4.87
2018-08-20T09:34:23.371Z,5.50
2018-08-20T09:37:26.581Z,5.40
2018-08-20T09:40:30.027Z,4.00
2018-08-20T09:43:33.266Z,3.90
2018-08-20T09:46:36.460Z,3.83
2018-08-20T09:49:40.069Z,3.67
2018-08-20T09:52:43.693Z,4.20
2018-08-20T09:55:46.965Z,4.27
2018-08-20T09:58:50.515Z,4.30
2018-08-20T10:01:53.840Z,4.73
2018-08-20T10:04:57.854Z,3.43
2018-08-20T10:08:01.314Z,3.73
2018-08-20T10:11:04.548Z,3.80
2018-08-20T10:14:07.957Z,4.23
2018-08-20T10:17:11.266Z,3.87
2018-08-20T10:20:15.400Z,4.37
2018-08-20T10:23:19.185Z,3.87
2018-08-20T10:26:22.454Z,3.73
2018-08-20T10:29:25.822Z,3.63
2018-08-20T10:32:29.307Z,4.13
2018-08-20T10:35:36.194Z,3.70
2018-08-20T10:38:39.587Z,4.07
2018-08-20T10:41:42.962Z,5.10
2018-08-20T10:44:51.668Z,4.27
2018-08-20T10:47:54.837Z,4.03
2018-08-20T10:50:58.029Z,4.93
2018-08-20T10:54:01.226Z,4.17
2018-08-20T10:57:04.710Z,4.93
2018-08-20T11:00:08.369Z,4.97
2018-08-20T11:03:12.655Z,5.53
2018-08-20T11:06:16.982Z,5.50
2018-08-20T11:09:20.304Z,6.10
2018-08-20T11:12:23.582Z,6.00
2018-08-20T11:15:26.859Z,6.53
2018-08-20T11:18:30.445Z,6.80
2018-08-20T11:21:33.703Z,7.23
2018-08-20T11:24:36.958Z,7.00
2018-08-20T11:27:40.356Z,8.10
2018-08-20T11:30:43.596Z,7.47
2018-08-20T11:33:46.885Z,7.97
2018-08-20T11:36:50.164Z,8.10
2018-08-20T11:39:53.470Z,8.43
2018-08-20T11:42:56.789Z,8.40
2018-08-20T11:46:20.530Z,8.13
2018-08-20T11:49:23.908Z,9.17
2018-08-20T11:52:27.222Z,10.23
2018-08-20T11:55:30.454Z,9.30
2018-08-20T11:58:33.819Z,10.37
2018-08-20T12:01:37.144Z,10.47
2018-08-20T12:04:40.345Z,11.20
2018-08-20T12:07:43.968Z,10.80
2018-08-20T12:10:47.207Z,10.17
2018-08-20T12:13:51.059Z,10.07
2018-08-20T12:16:54.358Z,13.10
2018-08-20T12:19:57.680Z,9.97
2018-08-20T12:23:01.092Z,10.60
2018-08-20T12:26:04.354Z,10.20
2018-08-20T12:29:07.630Z,9.93
2018-08-20T12:32:11.014Z,9.83
2018-08-20T12:35:14.379Z,10.03
2018-08-20T12:38:17.553Z,9.87
2018-08-20T12:41:20.773Z,9.23
2018-08-20T12:44:24.035Z,8.90
2018-08-20T12:47:27.288Z,11.97
2018-08-20T12:50:30.560Z,9.83
2018-08-20T12:53:33.910Z,10.27
2018-08-20T12:56:37.129Z,9.57
2018-08-20T12:59:40.310Z,9.73
2018-08-20T13:02:43.678Z,9.53
2018-08-20T13:05:47.051Z,10.50
2018-08-20T13:08:50.361Z,9.43
2018-08-20T13:11:53.602Z,10.33
2018-08-20T13:14:56.931Z,9.37
2018-08-20T13:18:00.406Z,10.33
2018-08-20T13:21:03.723Z,9.03
2018-08-20T13:24:07.207Z,9.73
2018-08-20T13:27:10.555Z,9.80
2018-08-20T13:30:13.906Z,9.60
2018-08-20T13:33:17.302Z,9.07
2018-08-20T13:36:20.561Z,8.77
2018-08-20T13:39:23.803Z,7.67
2018-08-20T13:42:29.399Z,7.77
2018-08-20T13:45:32.696Z,8.90
2018-08-20T13:48:36.035Z,8.70
2018-08-20T13:51:39.341Z,8.40
2018-08-20T13:54:42.608Z,8.97
2018-08-20T13:57:46.980Z,8.67
2018-08-20T14:00:50.241Z,9.10
2018-08-20T14:03:54.903Z,10.87
2018-08-20T14:06:58.806Z,9.90
2018-08-20T14:10:02.776Z,9.13
2018-08-20T14:13:06.315Z,8.57
2018-08-20T14:16:10.480Z,11.30
2018-08-20T14:19:13.866Z,10.60
2018-08-20T14:22:17.153Z,11.33
2018-08-20T14:25:20.455Z,12.10
2018-08-20T14:28:23.738Z,12.63
2018-08-20T14:31:27.094Z,12.50
2018-08-20T14:34:30.523Z,13.10
2018-08-20T14:37:33.786Z,13.50
2018-08-20T14:40:37.115Z,12.63
2018-08-20T14:43:40.439Z,12.17
2018-08-20T14:46:43.764Z,13.50
2018-08-20T14:49:47.055Z,12.27
2018-08-20T14:52:50.377Z,13.33
2018-08-20T14:55:53.598Z,13.43
2018-08-20T14:58:56.831Z,14.53
2018-08-20T15:02:00.272Z,14.53
2018-08-20T15:05:03.725Z,14.47
2018-08-20T15:08:06.927Z,13.37
2018-08-20T15:11:10.272Z,12.73
2018-08-20T15:14:13.627Z,13.70
2018-08-20T15:17:16.931Z,14.67
2018-08-20T15:20:20.131Z,13.60
2018-08-20T15:23:23.502Z,13.10
2018-08-20T15:26:26.920Z,13.23
2018-08-20T15:29:30.143Z,12.83
2018-08-20T15:32:33.441Z,13.60
2018-08-20T15:35:36.744Z,13.77
2018-08-20T15:38:40.043Z,13.43
2018-08-20T15:41:43.315Z,14.93
2018-08-20T15:44:46.677Z,15.57
2018-08-20T15:47:49.918Z,15.13
2018-08-20T15:50:53.157Z,13.70
2018-08-20T15:53:56.462Z,14.40
2018-08-20T15:56:59.702Z,15.70
2018-08-20T16:00:03.004Z,16.50
2018-08-20T16:03:06.594Z,19.33
2018-08-20T16:06:09.866Z,17.07
2018-08-20T16:09:13.230Z,15.77
2018-08-20T16:12:16.622Z,15.87
2018-08-20T16:15:19.953Z,16.87
2018-08-20T16:18:23.290Z,16.73
2018-08-20T16:21:26.807Z,16.10
2018-08-20T16:24:30.159Z,15.70
2018-08-20T16:27:33.470Z,16.30
2018-08-20T16:30:36.710Z,15.73
2018-08-20T16:33:50.116Z,17.83
2018-08-20T16:36:53.494Z,17.43
2018-08-20T16:39:56.767Z,18.97
2018-08-20T16:43:00.054Z,17.27
2018-08-20T16:46:03.362Z,18.03
2018-08-20T16:49:07.858Z,15.23
2018-08-20T16:52:11.214Z,16.03
2018-08-20T16:55:14.518Z,14.87
2018-08-20T16:58:17.768Z,14.90
2018-08-20T17:01:21.019Z,16.67
2018-08-20T17:04:31.521Z,14.90
2018-08-20T17:07:34.847Z,14.83
2018-08-20T17:10:38.215Z,15.70
2018-08-20T17:13:41.627Z,17.37
2018-08-20T17:16:44.838Z,16.10
2018-08-20T17:19:54.906Z,14.40
2018-08-20T17:23:10.146Z,15.23
2018-08-20T17:26:13.543Z,14.67
2018-08-20T17:29:16.958Z,13.13
2018-08-20T17:32:20.302Z,12.60
2018-08-20T17:35:23.531Z,14.47
2018-08-20T17:38:27.046Z,13.27
2018-08-20T17:41:30.331Z,13.17
2018-08-20T17:44:33.773Z,14.87
2018-08-20T17:47:38.391Z,15.37
2018-08-20T17:50:42.368Z,14.17
2018-08-20T17:53:52.734Z,13.50
2018-08-20T17:56:56.007Z,13.83
2018-08-20T18:00:21.947Z,12.90
2018-08-20T18:03:48.239Z,13.30
2018-08-20T18:06:54.114Z,14.23
2018-08-20T18:09:57.391Z,13.67
2018-08-20T18:13:00.594Z,13.23
2018-08-20T18:16:05.710Z,13.27
2018-08-20T18:19:09.450Z,13.20
2018-08-20T18:22:12.694Z,13.87
2018-08-20T18:25:15.942Z,14.70
2018-08-20T18:28:19.302Z,21.13
2018-08-20T18:31:24.878Z,13.23
2018-08-20T18:34:28.138Z,12.93
2018-08-20T18:37:36.158Z,12.50
2018-08-20T18:40:39.601Z,15.10
2018-08-20T18:43:43.828Z,14.90
2018-08-20T18:46:47.063Z,17.73
2018-08-20T18:53:28.463Z,14.73
2018-08-20T18:56:31.790Z,17.07
2018-08-20T18:59:36.494Z,14.27
2018-08-20T19:02:42.314Z,16.40
2018-08-20T19:05:49.835Z,17.90
2018-08-20T19:08:53.166Z,15.63
2018-08-20T19:11:56.500Z,16.07
2018-08-20T19:15:00.211Z,15.50
2018-08-20T19:18:03.499Z,15.50
2018-08-20T19:21:12.923Z,16.67
2018-08-20T19:24:16.156Z,17.90
2018-08-20T19:27:19.469Z,19.97
2018-08-20T19:30:25.023Z,21.87
2018-08-20T19:33:31.190Z,18.10
2018-08-20T19:36:34.466Z,17.83
2018-08-20T19:39:37.789Z,19.47
2018-08-20T19:42:41.081Z,21.90
2018-08-20T19:45:45.430Z,19.87
2018-08-20T19:48:49.310Z,20.23
2018-08-20T19:51:52.598Z,20.23
2018-08-20T19:55:01.286Z,19.40
2018-08-20T19:58:04.643Z,18.83
2018-08-20T20:01:10.777Z,22.23
2018-08-20T20:04:16.249Z,19.77
2018-08-20T20:07:19.503Z,22.33
2018-08-20T20:10:22.827Z,21.10
2018-08-20T20:13:37.744Z,22.77
2018-08-20T20:16:46.385Z,22.27
2018-08-20T20:19:49.695Z,20.23
2018-08-20T20:22:52.972Z,20.07
2018-08-20T20:25:56.215Z,25.00
2018-08-20T20:28:59.517Z,23.63
2018-08-20T20:32:02.742Z,21.77
2018-08-20T20:35:07.763Z,23.40
2018-08-20T20:38:11.064Z,21.47
2018-08-20T20:41:14.421Z,19.33
2018-08-20T20:44:17.850Z,18.80
2018-08-20T20:47:21.044Z,20.00
2018-08-20T20:50:24.603Z,20.83
2018-08-20T20:53:27.899Z,26.90
2018-08-20T20:56:31.193Z,20.33
2018-08-20T20:59:34.483Z,18.40
2018-08-20T21:02:44.490Z,19.17
2018-08-20T21:05:47.798Z,18.50
2018-08-20T21:08:51.767Z,17.83
2018-08-20T21:11:55.058Z,19.77
2018-08-20T21:14:58.311Z,17.97
2018-08-20T21:18:09.263Z,17.53
2018-08-20T21:21:12.940Z,17.43
2018-08-20T21:24:16.239Z,18.67
2018-08-20T21:27:24.618Z,17.30
2018-08-20T21:30:32.491Z,17.93
2018-08-20T21:33:35.742Z,16.13
2018-08-20T21:36:39.034Z,17.47
2018-08-20T21:39:42.310Z,16.17
2018-08-20T21:42:45.710Z,17.20
2018-08-20T21:45:48.982Z,19.97
2018-08-20T21:48:52.425Z,19.30
2018-08-20T21:51:57.056Z,15.33
2018-08-20T21:55:00.267Z,14.27
2018-08-20T21:58:03.908Z,14.03
2018-08-20T22:01:08.293Z,14.20
2018-08-20T22:04:16.758Z,14.63
2018-08-20T22:07:20.059Z,13.47
2018-08-20T22:10:23.741Z,12.57
2018-08-20T22:13:27.095Z,12.10
2018-08-20T22:16:30.480Z,11.50
2018-08-20T22:19:33.806Z,11.40
2018-08-20T22:22:37.166Z,11.23
2018-08-20T22:25:40.489Z,10.70
2018-08-20T22:28:43.965Z,9.83
2018-08-20T22:31:52.713Z,10.07
2018-08-20T22:34:56.015Z,9.80
2018-08-20T22:37:59.334Z,10.00
2018-08-20T22:41:02.611Z,9.17
2018-08-20T22:44:05.902Z,9.63
2018-08-20T22:47:09.237Z,8.70
2018-08-20T22:50:12.486Z,10.07
2018-08-20T22:53:16.434Z,9.83
2018-08-20T22:56:24.073Z,10.20
2018-08-20T22:59:28.156Z,9.07
2018-08-20T23:02:31.487Z,10.37
2018-08-20T23:05:34.809Z,10.27
2018-08-20T23:08:38.138Z,9.33
2018-08-20T23:11:42.430Z,9.47
2018-08-20T23:14:45.640Z,9.73
2018-08-20T23:17:48.860Z,11.80
2018-08-20T23:20:52.156Z,9.93
2018-08-20T23:23:55.500Z,10.00
2018-08-20T23:26:58.796Z,10.03
2018-08-20T23:30:03.119Z,11.37
2018-08-20T23:33:07.115Z,9.60
2018-08-20T23:36:10.374Z,9.87
2018-08-20T23:39:14.797Z,9.17
2018-08-20T23:42:18.135Z,9.50
2018-08-20T23:45:40.038Z,9.90
2018-08-20T23:48:43.415Z,9.53
2018-08-20T23:51:46.742Z,9.43
2018-08-20T23:54:50.001Z,10.37
2018-08-20T23:57:53.245Z,8.23
